createdAt,value
2022-11-19T00:01:52.081Z,90.18
2022-11-19T00:04:24.477Z,90.37
2022-11-19T00:06:56.252Z,90.57
2022-11-19T00:09:28.296Z,90.71
2022-11-19T00:12:17.377Z,90.77
2022-11-19T00:14:49.090Z,90.76
2022-11-19T00:17:21.006Z,90.72
2022-11-19T00:19:52.727Z,90.69
2022-11-19T00:22:24.692Z,90.89
2022-11-19T00:24:56.452Z,90.47
2022-11-19T00:27:28.361Z,90.31
2022-11-19T00:30:00.140Z,90.41
2022-11-19T00:32:33.051Z,90.48
2022-11-19T00:35:04.994Z,90.44
2022-11-19T00:37:36.716Z,90.65
2022-11-19T00:40:12.015Z,91.03
2022-11-19T00:43:03.751Z,91.12
2022-11-19T00:45:35.518Z,91.40
2022-11-19T00:48:08.097Z,91.52
2022-11-19T00:50:40.438Z,91.55
2022-11-19T00:53:12.218Z,91.38
2022-11-19T00:55:43.931Z,91.61
2022-11-19T00:58:16.513Z,91.73
2022-11-19T01:00:48.468Z,91.68
2022-11-19T01:03:20.273Z,91.89
2022-11-19T01:05:52.238Z,91.75
2022-11-19T01:08:24.284Z,91.57
2022-11-19T01:10:56.370Z,91.50
2022-11-19T01:13:36.834Z,91.34
2022-11-19T01:16:11.653Z,91.31
2022-11-19T01:18:44.665Z,91.16
2022-11-19T01:21:17.321Z,91.23
2022-11-19T01:23:49.660Z,91.37
2022-11-19T01:26:21.433Z,91.46
2022-11-19T01:28:53.860Z,90.90
2022-11-19T01:31:30.405Z,90.90
2022-11-19T01:34:02.291Z,90.70
2022-11-19T01:36:34.051Z,91.08
2022-11-19T01:39:06.122Z,90.62
2022-11-19T01:41:38.025Z,90.35
2022-11-19T01:44:24.098Z,90.34
2022-11-19T01:46:55.836Z,90.44
2022-11-19T01:49:27.583Z,90.68
2022-11-19T01:52:03.933Z,90.53
2022-11-19T01:54:40.582Z,90.97
2022-11-19T01:57:15.462Z,90.77
2022-11-19T01:59:51.642Z,90.67
2022-11-19T02:02:25.199Z,90.62
2022-11-19T02:04:58.417Z,89.91
2022-11-19T02:07:33.343Z,89.88
2022-11-19T02:10:08.143Z,89.82
2022-11-19T02:12:46.545Z,90.09
2022-11-19T02:15:32.041Z,90.45
2022-11-19T02:18:19.540Z,90.45
2022-11-19T02:21:03.079Z,90.92
2022-11-19T02:24:11.054Z,90.51
2022-11-19T02:27:02.042Z,90.47
2022-11-19T02:30:10.848Z,90.28
2022-11-19T02:32:55.107Z,90.43
2022-11-19T02:35:43.037Z,90.57
2022-11-19T02:38:24.128Z,90.50
2022-11-19T02:41:00.400Z,90.36
2022-11-19T02:43:40.097Z,90.51
2022-11-19T02:46:16.274Z,90.68
2022-11-19T02:48:52.970Z,90.63
2022-11-19T02:51:25.264Z,90.33
2022-11-19T02:53:58.487Z,90.49
2022-11-19T02:56:51.881Z,90.66
2022-11-19T02:59:45.965Z,90.76
2022-11-19T03:02:37.535Z,90.79
2022-11-19T03:05:14.632Z,90.91
2022-11-19T03:07:46.627Z,90.79
2022-11-19T03:10:23.738Z,90.87
2022-11-19T03:12:59.897Z,91.12
2022-11-19T03:16:00.072Z,90.94
2022-11-19T03:18:38.388Z,90.86
2022-11-19T03:21:09.214Z,90.62
2022-11-19T03:23:44.227Z,90.28
2022-11-19T03:26:25.770Z,90.20
2022-11-19T03:28:59.818Z,90.47
2022-11-19T03:31:34.316Z,90.60
2022-11-19T03:34:10.539Z,90.67
2022-11-19T03:36:44.429Z,90.69
2022-11-19T03:39:19.283Z,90.73
2022-11-19T03:41:53.861Z,90.61
2022-11-19T03:44:29.846Z,90.60
2022-11-19T03:47:08.021Z,90.50
2022-11-19T03:49:42.906Z,90.02
2022-11-19T03:52:17.685Z,90.17
2022-11-19T03:54:49.717Z,90.61
2022-11-19T03:57:24.577Z,90.18
2022-11-19T03:59:56.311Z,89.91
2022-11-19T04:02:28.060Z,89.88
2022-11-19T04:04:59.929Z,89.76
2022-11-19T04:07:32.012Z,89.41
2022-11-19T04:10:03.816Z,89.72
2022-11-19T04:12:35.565Z,90.13
2022-11-19T04:15:09.361Z,89.92
2022-11-19T04:17:41.419Z,89.65
2022-11-19T04:20:15.301Z,88.85
2022-11-19T04:22:47.167Z,88.83
2022-11-19T04:25:19.144Z,88.61
2022-11-19T04:27:50.861Z,88.46
2022-11-19T04:30:22.676Z,88.78
2022-11-19T04:32:54.598Z,88.79
2022-11-19T04:35:26.403Z,88.40
2022-11-19T04:37:58.131Z,88.36
2022-11-19T04:40:29.854Z,88.62
2022-11-19T04:43:01.893Z,88.75
2022-11-19T04:45:33.873Z,88.49
2022-11-19T04:48:05.759Z,88.62
2022-11-19T04:50:37.478Z,88.32
2022-11-19T04:53:09.297Z,88.19
2022-11-19T04:55:41.314Z,88.37
2022-11-19T04:58:13.063Z,88.07
2022-11-19T05:00:44.843Z,88.06
2022-11-19T05:03:16.816Z,87.92
2022-11-19T05:05:48.570Z,87.79
2022-11-19T05:08:20.457Z,87.90
2022-11-19T05:10:52.222Z,88.00
2022-11-19T05:13:23.993Z,88.33
2022-11-19T05:15:55.731Z,88.27
2022-11-19T05:18:27.942Z,88.29
2022-11-19T05:20:59.666Z,88.15
2022-11-19T05:23:31.405Z,87.96
2022-11-19T05:26:03.206Z,87.58
2022-11-19T05:28:39.170Z,87.35
2022-11-19T05:31:11.655Z,87.02
2022-11-19T05:33:43.355Z,87.36
2022-11-19T05:36:15.119Z,87.69
2022-11-19T05:38:46.866Z,87.45
2022-11-19T05:41:18.638Z,87.64
2022-11-19T05:43:50.402Z,87.83
2022-11-19T05:46:22.603Z,87.51
2022-11-19T05:48:55.121Z,87.44
2022-11-19T05:51:26.950Z,87.68
2022-11-19T05:53:58.762Z,87.42
2022-11-19T05:56:31.326Z,87.15
2022-11-19T05:59:03.165Z,87.14
2022-11-19T06:01:34.904Z,87.61
2022-11-19T06:04:06.809Z,87.67
2022-11-19T06:06:38.616Z,87.65
2022-11-19T06:09:10.760Z,87.32
2022-11-19T06:11:49.124Z,87.48
2022-11-19T06:14:22.104Z,87.57
2022-11-19T06:16:55.148Z,87.58
2022-11-19T06:19:28.211Z,87.20
2022-11-19T06:22:00.283Z,87.18
2022-11-19T06:24:32.028Z,87.32
2022-11-19T06:27:03.764Z,87.37
2022-11-19T06:29:35.518Z,87.68
2022-11-19T06:32:07.500Z,87.62
2022-11-19T06:34:39.227Z,87.67
2022-11-19T06:37:10.995Z,87.36
2022-11-19T06:39:42.985Z,87.58
2022-11-19T06:42:32.448Z,87.26
2022-11-19T06:45:04.237Z,86.45
2022-11-19T06:47:36.587Z,86.27
2022-11-19T06:50:10.273Z,86.28
2022-11-19T06:52:42.062Z,85.56
2022-11-19T06:55:14.552Z,85.37
2022-11-19T06:57:46.321Z,85.24
2022-11-19T07:00:19.560Z,85.25
2022-11-19T07:02:51.432Z,85.11
2022-11-19T07:05:23.235Z,84.99
2022-11-19T07:07:57.710Z,84.29
2022-11-19T07:10:33.477Z,84.19
2022-11-19T07:13:05.337Z,83.69
2022-11-19T07:15:37.282Z,83.35
2022-11-19T07:18:09.903Z,82.90
2022-11-19T07:20:41.662Z,83.74
2022-11-19T07:23:14.278Z,83.85
2022-11-19T07:25:46.086Z,83.10
2022-11-19T07:28:17.853Z,82.84
2022-11-19T07:30:49.625Z,83.23
2022-11-19T07:33:21.466Z,83.20
2022-11-19T07:35:53.215Z,83.38
2022-11-19T07:38:25.017Z,83.14
2022-11-19T07:40:57.749Z,82.95
2022-11-19T07:43:29.507Z,83.34
2022-11-19T07:46:06.205Z,82.57
2022-11-19T07:48:37.939Z,82.58
2022-11-19T07:51:10.837Z,82.38
2022-11-19T07:53:43.116Z,81.21
2022-11-19T07:56:15.006Z,81.08
2022-11-19T07:58:47.136Z,81.62
2022-11-19T08:01:21.009Z,81.14
2022-11-19T08:03:56.527Z,81.15
2022-11-19T08:06:30.816Z,81.84
2022-11-19T08:09:04.012Z,82.19
2022-11-19T08:11:36.018Z,81.49
2022-11-19T08:14:07.971Z,81.77
2022-11-19T08:16:57.910Z,81.24
2022-11-19T08:19:29.721Z,81.32
2022-11-19T08:22:01.780Z,80.84
2022-11-19T08:24:36.674Z,80.47
2022-11-19T08:27:08.592Z,80.78
2022-11-19T08:29:40.771Z,80.73
2022-11-19T08:32:12.681Z,80.70
2022-11-19T08:34:44.662Z,80.65
2022-11-19T08:37:16.529Z,79.87
2022-11-19T08:39:48.801Z,78.79
2022-11-19T08:42:53.136Z,77.54
2022-11-19T08:45:27.040Z,77.56
2022-11-19T08:48:00.927Z,78.27
2022-11-19T08:50:33.663Z,77.28
2022-11-19T08:53:07.113Z,76.75
2022-11-19T08:55:39.075Z,76.16
2022-11-19T08:58:12.843Z,76.21
2022-11-19T09:00:44.999Z,76.77
2022-11-19T09:03:16.954Z,75.23
2022-11-19T09:05:48.801Z,76.02
2022-11-19T09:08:20.559Z,77.59
2022-11-19T09:10:52.505Z,76.81
2022-11-19T09:13:24.595Z,76.31
2022-11-19T09:15:56.510Z,75.75
2022-11-19T09:18:28.663Z,75.54
2022-11-19T09:21:00.978Z,75.62
2022-11-19T09:23:32.765Z,75.62
2022-11-19T09:26:06.824Z,76.07
2022-11-19T09:28:38.586Z,74.95
2022-11-19T09:31:13.496Z,75.04
2022-11-19T09:33:48.562Z,75.15
2022-11-19T09:36:21.407Z,75.29
2022-11-19T09:38:57.140Z,75.67
2022-11-19T09:41:58.830Z,75.28
2022-11-19T09:44:41.956Z,74.81
2022-11-19T09:47:30.280Z,75.67
2022-11-19T09:50:06.364Z,75.92
2022-11-19T09:56:39.446Z,74.73
2022-11-19T09:59:22.126Z,74.40
2022-11-19T10:01:54.519Z,74.88
2022-11-19T10:04:29.111Z,74.04
2022-11-19T10:07:11.522Z,73.65
2022-11-19T10:09:55.893Z,72.87
2022-11-19T10:12:47.965Z,71.63
2022-11-19T10:15:26.194Z,72.57
2022-11-19T10:18:08.553Z,72.87
2022-11-19T10:20:54.142Z,72.06
2022-11-19T10:23:36.967Z,73.15
2022-11-19T10:26:14.020Z,72.99
2022-11-19T10:28:52.800Z,72.83
2022-11-19T10:31:34.239Z,73.33
2022-11-19T10:34:14.438Z,71.78
2022-11-19T10:36:51.057Z,71.77
2022-11-19T10:39:28.402Z,71.86
2022-11-19T10:42:07.889Z,71.71
2022-11-19T10:44:45.278Z,71.26
2022-11-19T10:47:21.578Z,71.84
2022-11-19T10:49:56.525Z,70.21
2022-11-19T10:52:34.889Z,71.36
2022-11-19T10:55:13.557Z,72.69
2022-11-19T10:57:48.112Z,72.46
2022-11-19T11:00:21.300Z,73.53
2022-11-19T11:02:59.720Z,73.93
2022-11-19T11:05:32.628Z,73.94
2022-11-19T11:08:13.010Z,72.56
2022-11-19T11:10:48.269Z,72.08
2022-11-19T11:13:56.785Z,72.14
2022-11-19T11:16:41.346Z,72.80
2022-11-19T11:19:19.238Z,72.61
2022-11-19T11:21:55.874Z,70.89
2022-11-19T11:24:36.202Z,71.17
2022-11-19T11:27:23.073Z,70.45
2022-11-19T11:30:16.131Z,70.32
2022-11-19T11:32:48.511Z,70.94
2022-11-19T11:35:34.518Z,69.87
2022-11-19T11:38:08.265Z,70.04
2022-11-19T11:40:40.232Z,70.19
2022-11-19T11:43:19.109Z,71.10
2022-11-19T11:45:59.705Z,70.96
2022-11-19T11:48:36.334Z,70.48
2022-11-19T11:51:09.233Z,70.22
2022-11-19T11:53:43.199Z,70.24
2022-11-19T11:56:22.042Z,69.66
2022-11-19T11:58:53.969Z,70.01
2022-11-19T12:01:25.786Z,70.59
2022-11-19T12:03:59.842Z,69.86
2022-11-19T12:06:42.459Z,70.73
2022-11-19T12:09:23.826Z,69.22
2022-11-19T12:12:01.918Z,69.09
2022-11-19T12:14:39.335Z,70.55
2022-11-19T12:17:27.970Z,70.67
2022-11-19T12:20:17.767Z,70.12
2022-11-19T12:23:05.058Z,69.90
2022-11-19T12:25:41.322Z,69.93
2022-11-19T12:28:32.891Z,70.21
2022-11-19T12:31:17.071Z,71.46
2022-11-19T12:34:06.963Z,71.71
2022-11-19T12:36:49.174Z,70.85
2022-11-19T12:39:33.778Z,70.78
2022-11-19T12:42:27.075Z,71.33
2022-11-19T12:45:07.657Z,71.02
2022-11-19T12:47:59.521Z,69.88
2022-11-19T12:50:44.636Z,70.74
2022-11-19T12:53:28.840Z,70.44
2022-11-19T12:56:11.818Z,69.43
2022-11-19T12:58:56.640Z,68.99
2022-11-19T13:01:34.279Z,67.55
2022-11-19T13:04:12.484Z,69.25
2022-11-19T13:06:50.743Z,70.51
2022-11-19T13:09:29.206Z,70.88
2022-11-19T13:12:06.776Z,71.09
2022-11-19T13:14:43.948Z,71.04
2022-11-19T13:17:23.346Z,70.54
2022-11-19T13:19:58.925Z,70.55
2022-11-19T13:22:36.733Z,70.44
2022-11-19T13:25:19.970Z,68.73
2022-11-19T13:27:53.716Z,69.10
2022-11-19T13:30:29.865Z,69.04
2022-11-19T13:33:11.117Z,68.80
2022-11-19T13:35:50.888Z,69.29
2022-11-19T13:38:29.327Z,69.85
2022-11-19T13:41:11.960Z,69.33
2022-11-19T13:44:02.209Z,69.93
2022-11-19T13:46:40.274Z,67.79
2022-11-19T13:49:19.680Z,68.53
2022-11-19T13:51:56.506Z,69.91
2022-11-19T13:54:34.224Z,70.09
2022-11-19T13:57:08.467Z,70.49
2022-11-19T13:59:45.420Z,70.14
2022-11-19T14:02:58.252Z,70.55
2022-11-19T14:05:45.914Z,69.60
2022-11-19T14:08:41.589Z,69.39
2022-11-19T14:11:31.063Z,70.23
2022-11-19T14:14:44.027Z,70.98
2022-11-19T14:17:41.590Z,71.18
2022-11-19T14:20:52.849Z,71.60
2022-11-19T14:24:02.174Z,72.01
2022-11-19T14:27:17.666Z,72.49
2022-11-19T14:29:57.967Z,73.00
2022-11-19T14:32:36.440Z,73.14
2022-11-19T14:35:20.096Z,73.12
2022-11-19T14:37:55.109Z,72.96
2022-11-19T14:40:29.532Z,73.09
2022-11-19T14:43:46.390Z,72.98
2022-11-19T14:46:30.338Z,73.22
2022-11-19T14:49:10.641Z,73.46
2022-11-19T14:51:43.107Z,73.65
2022-11-19T14:54:32.523Z,73.85
2022-11-19T14:57:26.326Z,74.11
2022-11-19T15:00:01.266Z,74.60
2022-11-19T15:02:38.055Z,74.93
2022-11-19T15:05:19.251Z,75.26
2022-11-19T15:07:56.213Z,76.18
2022-11-19T15:10:47.476Z,76.39
2022-11-19T15:13:36.163Z,76.59
2022-11-19T15:16:16.061Z,76.75
2022-11-19T15:19:29.497Z,77.21
2022-11-19T15:22:27.216Z,77.67
2022-11-19T15:25:17.410Z,77.83
2022-11-19T15:28:15.603Z,78.05
2022-11-19T15:31:26.227Z,78.45
2022-11-19T15:34:17.915Z,78.29
2022-11-19T15:36:53.369Z,78.14
2022-11-19T15:39:29.744Z,78.10
2022-11-19T15:42:07.425Z,78.55
2022-11-19T15:44:47.379Z,78.59
2022-11-19T15:47:24.887Z,78.96
2022-11-19T15:49:59.505Z,79.39
2022-11-19T15:52:33.419Z,79.76
2022-11-19T15:55:19.374Z,79.63
2022-11-19T15:57:56.140Z,79.72
2022-11-19T16:00:29.347Z,80.17
2022-11-19T16:03:02.033Z,80.26
2022-11-19T16:05:34.341Z,80.37
2022-11-19T16:08:13.458Z,80.48
2022-11-19T16:11:08.463Z,80.60
2022-11-19T16:13:57.828Z,80.54
2022-11-19T16:16:48.201Z,80.20
2022-11-19T16:19:20.292Z,80.39
2022-11-19T16:21:57.150Z,80.48
2022-11-19T16:24:47.390Z,80.64
2022-11-19T16:27:24.216Z,80.87
2022-11-19T16:29:56.121Z,81.08
2022-11-19T16:32:29.560Z,81.07
2022-11-19T16:35:20.494Z,81.24
2022-11-19T16:37:53.723Z,81.33
2022-11-19T16:40:26.510Z,81.39
2022-11-19T16:43:01.414Z,81.51
2022-11-19T16:45:34.340Z,81.61
2022-11-19T16:48:06.496Z,81.64
2022-11-19T16:50:45.285Z,81.73
2022-11-19T16:53:48.053Z,81.90
2022-11-19T16:56:20.096Z,81.93
2022-11-19T16:58:55.971Z,81.90
2022-11-19T17:01:29.633Z,82.20
2022-11-19T17:04:07.175Z,82.53
2022-11-19T17:06:40.356Z,82.79
2022-11-19T17:09:32.198Z,82.68
2022-11-19T17:12:19.791Z,82.49
2022-11-19T17:14:56.266Z,82.65
2022-11-19T17:17:40.348Z,82.74
2022-11-19T17:20:52.648Z,82.85
2022-11-19T17:23:25.569Z,82.79
2022-11-19T17:25:59.500Z,83.00
2022-11-19T17:28:36.499Z,82.69
2022-11-19T17:31:15.906Z,82.79
2022-11-19T17:34:12.005Z,82.99
2022-11-19T17:36:43.898Z,83.19
2022-11-19T17:39:15.919Z,83.80
2022-11-19T17:42:05.066Z,84.18
2022-11-19T17:44:39.199Z,84.24
2022-11-19T17:47:24.476Z,83.91
2022-11-19T17:49:56.474Z,84.12
2022-11-19T17:52:30.603Z,84.09
2022-11-19T17:55:17.554Z,83.71
2022-11-19T17:57:49.348Z,83.89
2022-11-19T18:00:21.602Z,83.83
2022-11-19T18:02:53.361Z,83.85
2022-11-19T18:05:27.593Z,84.09
2022-11-19T18:07:59.409Z,84.27
2022-11-19T18:10:31.243Z,84.35
2022-11-19T18:13:03.170Z,84.60
2022-11-19T18:15:34.969Z,84.58
2022-11-19T18:18:07.151Z,84.74
2022-11-19T18:20:39.449Z,84.60
2022-11-19T18:23:14.644Z,84.70
2022-11-19T18:25:46.433Z,84.50
2022-11-19T18:28:18.213Z,84.73
2022-11-19T18:30:49.979Z,84.58
2022-11-19T18:33:21.754Z,84.57
2022-11-19T18:35:53.654Z,84.51
2022-11-19T18:38:26.145Z,84.50
2022-11-19T18:40:57.929Z,84.91
2022-11-19T18:43:47.179Z,84.77
2022-11-19T18:46:19.097Z,85.15
2022-11-19T18:48:51.465Z,85.00
2022-11-19T18:51:23.509Z,85.14
2022-11-19T18:53:55.315Z,85.35
2022-11-19T18:56:27.208Z,85.42
2022-11-19T18:59:03.400Z,85.37
2022-11-19T19:01:36.837Z,85.41
2022-11-19T19:04:09.994Z,85.42
2022-11-19T19:06:42.213Z,85.10
2022-11-19T19:09:20.228Z,84.87
2022-11-19T19:12:13.522Z,84.70
2022-11-19T19:14:47.130Z,84.54
2022-11-19T19:17:19.112Z,84.56
2022-11-19T19:19:50.913Z,84.80
2022-11-19T19:22:22.793Z,85.03
2022-11-19T19:24:58.200Z,85.12
2022-11-19T19:27:30.130Z,84.91
2022-11-19T19:30:02.037Z,85.10
2022-11-19T19:32:33.790Z,84.86
2022-11-19T19:35:05.912Z,85.02
2022-11-19T19:37:37.885Z,85.08
2022-11-19T19:40:12.584Z,85.15
2022-11-19T19:42:46.049Z,85.16
2022-11-19T19:45:18.162Z,84.58
2022-11-19T19:47:49.977Z,84.37
2022-11-19T19:50:21.757Z,84.60
2022-11-19T19:52:53.571Z,84.40
2022-11-19T19:55:25.370Z,84.45
2022-11-19T19:57:57.115Z,84.40
2022-11-19T20:00:29.052Z,84.42
2022-11-19T20:03:00.810Z,84.53
2022-11-19T20:05:32.634Z,84.33
2022-11-19T20:08:04.703Z,84.63
2022-11-19T20:10:36.536Z,84.54
2022-11-19T20:13:27.524Z,84.45
2022-11-19T20:16:01.048Z,84.87
2022-11-19T20:18:33.964Z,85.03
2022-11-19T20:21:07.517Z,85.29
2022-11-19T20:23:41.019Z,85.43
2022-11-19T20:26:16.307Z,85.30
2022-11-19T20:28:48.824Z,85.65
2022-11-19T20:31:21.594Z,85.56
2022-11-19T20:33:56.537Z,85.41
2022-11-19T20:36:30.777Z,85.15
2022-11-19T20:39:03.204Z,85.43
2022-11-19T20:41:53.149Z,85.35
2022-11-19T20:44:25.469Z,85.59
2022-11-19T20:46:58.629Z,85.56
2022-11-19T20:49:32.433Z,85.63
2022-11-19T20:52:04.395Z,85.64
2022-11-19T20:54:36.533Z,85.82
2022-11-19T20:57:08.662Z,85.82
2022-11-19T20:59:40.589Z,85.46
2022-11-19T21:02:12.981Z,85.53
2022-11-19T21:04:44.815Z,85.10
2022-11-19T21:07:16.842Z,84.96
2022-11-19T21:09:48.703Z,85.25
2022-11-19T21:12:20.458Z,85.24
2022-11-19T21:14:52.268Z,84.86
2022-11-19T21:17:24.125Z,85.15
2022-11-19T21:19:56.113Z,84.85
2022-11-19T21:22:27.906Z,85.21
2022-11-19T21:24:59.820Z,85.01
2022-11-19T21:27:31.986Z,85.63
2022-11-19T21:30:04.112Z,85.82
2022-11-19T21:32:35.906Z,85.75
2022-11-19T21:35:08.890Z,85.86
2022-11-19T21:37:40.728Z,85.99
2022-11-19T21:40:13.967Z,86.13
2022-11-19T21:42:45.772Z,86.22
2022-11-19T21:45:17.596Z,86.67
2022-11-19T21:47:49.572Z,86.61
2022-11-19T21:50:21.745Z,86.71
2022-11-19T21:52:53.571Z,86.93
2022-11-19T21:55:25.342Z,86.54
2022-11-19T21:57:57.205Z,86.46
2022-11-19T22:00:29.540Z,86.69
2022-11-19T22:03:01.727Z,86.66
2022-11-19T22:05:33.520Z,86.79
2022-11-19T22:08:05.711Z,86.55
2022-11-19T22:10:40.267Z,86.58
2022-11-19T22:13:16.043Z,86.34
2022-11-19T22:15:47.870Z,86.20
2022-11-19T22:18:19.963Z,86.39
2022-11-19T22:21:00.318Z,86.55
2022-11-19T22:23:32.303Z,86.64
2022-11-19T22:26:08.680Z,86.92
2022-11-19T22:28:40.873Z,86.91
2022-11-19T22:31:13.557Z,87.06
2022-11-19T22:33:47.839Z,87.06
2022-11-19T22:36:20.935Z,87.07
2022-11-19T22:38:53.537Z,86.83
2022-11-19T22:41:25.384Z,86.54
2022-11-19T22:43:57.219Z,86.50
2022-11-19T22:46:29.662Z,85.92
2022-11-19T22:49:01.410Z,85.80
2022-11-19T22:51:33.243Z,85.86
2022-11-19T22:54:05.489Z,85.95
2022-11-19T22:56:37.254Z,86.46
2022-11-19T22:59:09.209Z,86.70
2022-11-19T23:01:41.027Z,86.66
2022-11-19T23:04:16.340Z,86.70
2022-11-19T23:06:48.085Z,86.76
2022-11-19T23:09:20.532Z,86.55
2022-11-19T23:12:10.199Z,86.49
2022-11-19T23:14:42.854Z,86.21
2022-11-19T23:17:15.132Z,86.15
2022-11-19T23:19:46.926Z,85.82
2022-11-19T23:22:18.662Z,85.36
2022-11-19T23:24:50.558Z,85.23
2022-11-19T23:27:22.519Z,84.88
2022-11-19T23:29:55.148Z,85.22
2022-11-19T23:32:26.918Z,85.06
2022-11-19T23:34:58.677Z,84.91
2022-11-19T23:37:30.412Z,85.43
2022-11-19T23:40:02.201Z,85.45
2022-11-19T23:42:34.357Z,85.71
2022-11-19T23:45:07.130Z,86.09
2022-11-19T23:47:40.089Z,86.01
2022-11-19T23:50:13.286Z,86.04
2022-11-19T23:52:45.088Z,85.64
2022-11-19T23:55:16.886Z,85.72
2022-11-19T23:57:50.909Z,85.39
